Ferry Kyoto II — JI3701 — position and weather

sailwx.info

Track history (hours):
 
Tides and Currents Weather Stations Pressure Air Temp Water Temp Dewpoint Dewpoint Depression Visibility Wind Speed Wind Dir Waves Ship Positions

Ferry Kyoto II

Last reported at 2017-Nov-23 09:56 UTC. Time now 2017-Nov-24 12:41 UTC.
Position N 34°33' E 134°46'.

Length 167 m; draft 5.9 m.

Type: Passenger vessel. MMSI: 431301641.

Date/timePositionNaut miles runAvg speedWind from/ knotsBaromVisibWave heightAir tempDewpointWater temp
2017-Nov-23 09:56N 34°33' E 134°46'920.7
2017-Nov-23 09:30N 34°36' E 134°56'918.9
2017-Nov-23 09:00N 34°36' E 135°07'1020.3
2017-Nov-23 08:30N 34°37' E 135°19'5 9.9
2017-Nov-23 07:58N 34°37' E 135°26'0 0.0
2017-Nov-23 07:22N 34°37' E 135°26'0 0.0
2017-Nov-23 06:58N 34°37' E 135°26'0 0.0
2017-Nov-23 06:28N 34°37' E 135°26'0 0.0
2017-Nov-23 05:58N 34°37' E 135°26'0 0.0
2017-Nov-23 05:28N 34°37' E 135°26'0 0.0
2017-Nov-23 04:58N 34°37' E 135°26'0 0.0
2017-Nov-23 04:28N 34°37' E 135°26'0 0.0
2017-Nov-23 03:58N 34°37' E 135°26'0 0.0
2017-Nov-23 03:28N 34°37' E 135°26'0 0.0
2017-Nov-23 02:52N 34°37' E 135°26'0 0.0
2017-Nov-23 02:28N 34°37' E 135°26'0 0.0
2017-Nov-23 01:46N 34°37' E 135°26'0 0.0
2017-Nov-23 01:22N 34°37' E 135°26'0 0.0
2017-Nov-23 00:58N 34°37' E 135°26'0 0.0
2017-Nov-23 00:28N 34°37' E 135°26'0 0.0
2017-Nov-22 23:58N 34°37' E 135°26'0 0.0
2017-Nov-22 23:22N 34°37' E 135°26'0 0.0
2017-Nov-22 22:58N 34°37' E 135°26'0 0.0
2017-Nov-22 22:28N 34°37' E 135°26'0 0.0
2017-Nov-22 21:58N 34°37' E 135°26'0 0.0
2017-Nov-22 21:28N 34°37' E 135°26'0 0.0
2017-Nov-22 20:58N 34°37' E 135°26'0 0.8
2017-Nov-22 20:30N 34°37' E 135°25'816.2
2017-Nov-22 20:00N 34°36' E 135°16'1121.6
2017-Nov-22 19:30N 34°36' E 135°03'  
2017-Nov-19 09:43N 34°34' E 134°49'522.3
2017-Nov-19 09:30N 34°35' E 134°54'1019.7
2017-Nov-19 09:00N 34°36' E 135°06'1121.1
2017-Nov-19 08:30N 34°37' E 135°19'6 9.9
2017-Nov-19 07:54N 34°37' E 135°26'0 0.0
2017-Nov-19 07:30N 34°37' E 135°26'0 0.0
2017-Nov-19 07:00N 34°37' E 135°26'0 0.0
2017-Nov-19 06:30N 34°37' E 135°26'0 0.0
2017-Nov-19 06:00N 34°37' E 135°26'0 0.0
2017-Nov-19 05:24N 34°37' E 135°26'0 0.0
2017-Nov-19 05:00N 34°37' E 135°26'0 0.0
2017-Nov-19 04:24N 34°37' E 135°26'0 0.0
2017-Nov-19 03:54N 34°37' E 135°26'0 0.0
2017-Nov-19 03:24N 34°37' E 135°26'0 0.0
2017-Nov-19 03:00N 34°37' E 135°26'0 0.0
2017-Nov-19 02:24N 34°37' E 135°26'0 0.0
2017-Nov-19 02:00N 34°37' E 135°26'0 0.0
2017-Nov-19 01:30N 34°37' E 135°26'0 0.0
2017-Nov-19 01:00N 34°37' E 135°26'0 0.0
2017-Nov-19 00:24N 34°37' E 135°26'0 0.0
2017-Nov-18 23:54N 34°37' E 135°26'0 0.0
2017-Nov-18 23:30N 34°37' E 135°26'0 0.0
2017-Nov-18 23:00N 34°37' E 135°26'0 0.0
2017-Nov-18 22:30N 34°37' E 135°26'0 0.0
2017-Nov-18 22:00N 34°37' E 135°26'0 0.0
2017-Nov-18 21:24N 34°37' E 135°26'0 0.0
2017-Nov-18 21:00N 34°37' E 135°26'0 0.0
2017-Nov-18 20:25N 34°37' E 135°26'2 5.1
2017-Nov-18 20:00N 34°38' E 135°23'714.3
2017-Nov-18 19:31N 34°36' E 135°15'917.6
2017-Nov-18 19:00N 34°35' E 135°05'1019.3
2017-Nov-18 18:31N 34°35' E 134°53'4 0.1
2017-Nov-17 09:42N 34°34' E 134°49'423.0
2017-Nov-17 09:30N 34°35' E 134°53'1020.2
2017-Nov-17 09:00N 34°36' E 135°06'1121.0
2017-Nov-17 08:30N 34°37' E 135°19'610.5
2017-Nov-17 07:56N 34°37' E 135°26'0 0.0
2017-Nov-17 07:26N 34°37' E 135°26'0 0.0
2017-Nov-17 06:50N 34°37' E 135°26'0 0.0
2017-Nov-17 06:26N 34°37' E 135°26'0 0.0
2017-Nov-17 05:50N 34°37' E 135°26'0 0.0
2017-Nov-17 05:26N 34°37' E 135°26'0 0.0
2017-Nov-17 04:50N 34°37' E 135°26'0 0.0
2017-Nov-17 04:26N 34°37' E 135°26'0 0.0
2017-Nov-17 03:50N 34°37' E 135°26'0 0.0
2017-Nov-17 03:26N 34°37' E 135°26'0 0.0
2017-Nov-17 02:50N 34°37' E 135°26'0 0.0
2017-Nov-17 02:26N 34°37' E 135°26'0 0.0
2017-Nov-17 01:56N 34°37' E 135°26'0 0.0
2017-Nov-17 01:14N 34°37' E 135°26'0 0.0
2017-Nov-17 00:50N 34°37' E 135°26'0 0.0
2017-Nov-17 00:14N 34°37' E 135°26'0 0.0
2017-Nov-16 23:56N 34°37' E 135°26'0 0.0
2017-Nov-16 23:26N 34°37' E 135°26'0 0.0
2017-Nov-16 22:56N 34°37' E 135°26'0 0.0
2017-Nov-16 22:26N 34°37' E 135°26'0 0.0
2017-Nov-16 21:56N 34°37' E 135°26'0 0.0
2017-Nov-16 21:20N 34°37' E 135°26'0 0.0
2017-Nov-16 20:56N 34°37' E 135°26'0 0.0
2017-Nov-16 20:30N 34°37' E 135°26'3 5.6
2017-Nov-16 20:00N 34°38' E 135°23'917.3
2017-Nov-16 19:30N 34°35' E 135°13'1019.3
2017-Nov-16 19:01N 34°37' E 135°01'1019.6
2017-Nov-16 18:30N 34°33' E 134°50'1 0.0
2017-Nov-15 09:41N 34°34' E 134°48'423.1
2017-Nov-15 09:30N 34°36' E 134°53'1121.7
2017-Nov-15 09:01N 34°36' E 135°06'1120.9
2017-Nov-15 08:30N 34°37' E 135°19'6 9.4
2017-Nov-15 07:53N 34°37' E 135°26'0 0.0
2017-Nov-15 07:29N 34°37' E 135°26'0 0.0
2017-Nov-15 06:59N 34°37' E 135°26'0 0.0
2017-Nov-15 06:29N 34°37' E 135°26'0 0.0
2017-Nov-15 05:59N 34°37' E 135°26'0 0.0
2017-Nov-15 05:29N 34°37' E 135°26'0 0.0
2017-Nov-15 04:59N 34°37' E 135°26'0 0.0
2017-Nov-15 04:29N 34°37' E 135°26'0 0.0
2017-Nov-15 03:53N 34°37' E 135°26'0 0.0
2017-Nov-15 03:23N 34°37' E 135°26'0 0.0
2017-Nov-15 02:59N 34°37' E 135°26'0 0.0
2017-Nov-15 02:29N 34°37' E 135°26'0 0.0
2017-Nov-15 01:53N 34°37' E 135°26'0 0.0
2017-Nov-15 01:29N 34°37' E 135°26'0 0.0
2017-Nov-15 00:59N 34°37' E 135°26'0 0.0
2017-Nov-15 00:29N 34°37' E 135°26'0 0.0
2017-Nov-14 23:53N 34°37' E 135°26'0 0.0
2017-Nov-14 23:29N 34°37' E 135°26'0 0.0
2017-Nov-14 22:35N 34°37' E 135°26'0 0.0
2017-Nov-14 22:29N 34°37' E 135°26'0 0.0
2017-Nov-14 21:59N 34°37' E 135°26'0 0.0
2017-Nov-14 21:29N 34°37' E 135°26'0 0.0
2017-Nov-14 20:59N 34°37' E 135°26'0 0.0
2017-Nov-14 20:31N 34°37' E 135°26'611.6
2017-Nov-14 20:00N 34°36' E 135°19'1121.9
2017-Nov-14 19:30N 34°35' E 135°06'919.0
2017-Nov-14 19:00N 34°35' E 134°54'  
Track history (hours):
 
Tides and Currents Weather Stations Pressure Air Temp Water Temp Dewpoint Dewpoint Depression Visibility Wind Speed Wind Dir Waves Ship Positions

Ferry Kyoto II

Last reported at 2017-Nov-23 09:56 UTC. Time now 2017-Nov-24 12:41 UTC.
Position N 34°33' E 134°46'.

Length 167 m; draft 5.9 m.

Type: Passenger vessel. MMSI: 431301641.

Date/timePositionNaut miles runAvg speedWind from/ knotsBaromVisibWave heightAir tempDewpointWater temp
2017-Nov-23 09:56N 34°33' E 134°46'920.7
2017-Nov-23 09:30N 34°36' E 134°56'918.9
2017-Nov-23 09:00N 34°36' E 135°07'1020.3
2017-Nov-23 08:30N 34°37' E 135°19'5 9.9
2017-Nov-23 07:58N 34°37' E 135°26'0 0.0
2017-Nov-23 07:22N 34°37' E 135°26'0 0.0
2017-Nov-23 06:58N 34°37' E 135°26'0 0.0
2017-Nov-23 06:28N 34°37' E 135°26'0 0.0
2017-Nov-23 05:58N 34°37' E 135°26'0 0.0
2017-Nov-23 05:28N 34°37' E 135°26'0 0.0
2017-Nov-23 04:58N 34°37' E 135°26'0 0.0
2017-Nov-23 04:28N 34°37' E 135°26'0 0.0
2017-Nov-23 03:58N 34°37' E 135°26'0 0.0
2017-Nov-23 03:28N 34°37' E 135°26'0 0.0
2017-Nov-23 02:52N 34°37' E 135°26'0 0.0
2017-Nov-23 02:28N 34°37' E 135°26'0 0.0
2017-Nov-23 01:46N 34°37' E 135°26'0 0.0
2017-Nov-23 01:22N 34°37' E 135°26'0 0.0
2017-Nov-23 00:58N 34°37' E 135°26'0 0.0
2017-Nov-23 00:28N 34°37' E 135°26'0 0.0
2017-Nov-22 23:58N 34°37' E 135°26'0 0.0
2017-Nov-22 23:22N 34°37' E 135°26'0 0.0
2017-Nov-22 22:58N 34°37' E 135°26'0 0.0
2017-Nov-22 22:28N 34°37' E 135°26'0 0.0
2017-Nov-22 21:58N 34°37' E 135°26'0 0.0
2017-Nov-22 21:28N 34°37' E 135°26'0 0.0
2017-Nov-22 20:58N 34°37' E 135°26'0 0.8
2017-Nov-22 20:30N 34°37' E 135°25'816.2
2017-Nov-22 20:00N 34°36' E 135°16'1121.6
2017-Nov-22 19:30N 34°36' E 135°03'  
2017-Nov-19 09:43N 34°34' E 134°49'522.3
2017-Nov-19 09:30N 34°35' E 134°54'1019.7
2017-Nov-19 09:00N 34°36' E 135°06'1121.1
2017-Nov-19 08:30N 34°37' E 135°19'6 9.9
2017-Nov-19 07:54N 34°37' E 135°26'0 0.0
2017-Nov-19 07:30N 34°37' E 135°26'0 0.0
2017-Nov-19 07:00N 34°37' E 135°26'0 0.0
2017-Nov-19 06:30N 34°37' E 135°26'0 0.0
2017-Nov-19 06:00N 34°37' E 135°26'0 0.0
2017-Nov-19 05:24N 34°37' E 135°26'0 0.0
2017-Nov-19 05:00N 34°37' E 135°26'0 0.0
2017-Nov-19 04:24N 34°37' E 135°26'0 0.0
2017-Nov-19 03:54N 34°37' E 135°26'0 0.0
2017-Nov-19 03:24N 34°37' E 135°26'0 0.0
2017-Nov-19 03:00N 34°37' E 135°26'0 0.0
2017-Nov-19 02:24N 34°37' E 135°26'0 0.0
2017-Nov-19 02:00N 34°37' E 135°26'0 0.0
2017-Nov-19 01:30N 34°37' E 135°26'0 0.0
2017-Nov-19 01:00N 34°37' E 135°26'0 0.0
2017-Nov-19 00:24N 34°37' E 135°26'0 0.0
2017-Nov-18 23:54N 34°37' E 135°26'0 0.0
2017-Nov-18 23:30N 34°37' E 135°26'0 0.0
2017-Nov-18 23:00N 34°37' E 135°26'0 0.0
2017-Nov-18 22:30N 34°37' E 135°26'0 0.0
2017-Nov-18 22:00N 34°37' E 135°26'0 0.0
2017-Nov-18 21:24N 34°37' E 135°26'0 0.0
2017-Nov-18 21:00N 34°37' E 135°26'0 0.0
2017-Nov-18 20:25N 34°37' E 135°26'2 5.1
2017-Nov-18 20:00N 34°38' E 135°23'714.3
2017-Nov-18 19:31N 34°36' E 135°15'917.6
2017-Nov-18 19:00N 34°35' E 135°05'1019.3
2017-Nov-18 18:31N 34°35' E 134°53'4 0.1
2017-Nov-17 09:42N 34°34' E 134°49'423.0
2017-Nov-17 09:30N 34°35' E 134°53'1020.2
2017-Nov-17 09:00N 34°36' E 135°06'1121.0
2017-Nov-17 08:30N 34°37' E 135°19'610.5
2017-Nov-17 07:56N 34°37' E 135°26'0 0.0
2017-Nov-17 07:26N 34°37' E 135°26'0 0.0
2017-Nov-17 06:50N 34°37' E 135°26'0 0.0
2017-Nov-17 06:26N 34°37' E 135°26'0 0.0
2017-Nov-17 05:50N 34°37' E 135°26'0 0.0
2017-Nov-17 05:26N 34°37' E 135°26'0 0.0
2017-Nov-17 04:50N 34°37' E 135°26'0 0.0
2017-Nov-17 04:26N 34°37' E 135°26'0 0.0
2017-Nov-17 03:50N 34°37' E 135°26'0 0.0
2017-Nov-17 03:26N 34°37' E 135°26'0 0.0
2017-Nov-17 02:50N 34°37' E 135°26'0 0.0
2017-Nov-17 02:26N 34°37' E 135°26'0 0.0
2017-Nov-17 01:56N 34°37' E 135°26'0 0.0
2017-Nov-17 01:14N 34°37' E 135°26'0 0.0
2017-Nov-17 00:50N 34°37' E 135°26'0 0.0
2017-Nov-17 00:14N 34°37' E 135°26'0 0.0
2017-Nov-16 23:56N 34°37' E 135°26'0 0.0
2017-Nov-16 23:26N 34°37' E 135°26'0 0.0
2017-Nov-16 22:56N 34°37' E 135°26'0 0.0
2017-Nov-16 22:26N 34°37' E 135°26'0 0.0
2017-Nov-16 21:56N 34°37' E 135°26'0 0.0
2017-Nov-16 21:20N 34°37' E 135°26'0 0.0
2017-Nov-16 20:56N 34°37' E 135°26'0 0.0
2017-Nov-16 20:30N 34°37' E 135°26'3 5.6
2017-Nov-16 20:00N 34°38' E 135°23'917.3
2017-Nov-16 19:30N 34°35' E 135°13'1019.3
2017-Nov-16 19:01N 34°37' E 135°01'1019.6
2017-Nov-16 18:30N 34°33' E 134°50'1 0.0
2017-Nov-15 09:41N 34°34' E 134°48'423.1
2017-Nov-15 09:30N 34°36' E 134°53'1121.7
2017-Nov-15 09:01N 34°36' E 135°06'1120.9
2017-Nov-15 08:30N 34°37' E 135°19'6 9.4
2017-Nov-15 07:53N 34°37' E 135°26'0 0.0
2017-Nov-15 07:29N 34°37' E 135°26'0 0.0
2017-Nov-15 06:59N 34°37' E 135°26'0 0.0
2017-Nov-15 06:29N 34°37' E 135°26'0 0.0
2017-Nov-15 05:59N 34°37' E 135°26'0 0.0
2017-Nov-15 05:29N 34°37' E 135°26'0 0.0
2017-Nov-15 04:59N 34°37' E 135°26'0 0.0
2017-Nov-15 04:29N 34°37' E 135°26'0 0.0
2017-Nov-15 03:53N 34°37' E 135°26'0 0.0
2017-Nov-15 03:23N 34°37' E 135°26'0 0.0
2017-Nov-15 02:59N 34°37' E 135°26'0 0.0
2017-Nov-15 02:29N 34°37' E 135°26'0 0.0
2017-Nov-15 01:53N 34°37' E 135°26'0 0.0
2017-Nov-15 01:29N 34°37' E 135°26'0 0.0
2017-Nov-15 00:59N 34°37' E 135°26'0 0.0
2017-Nov-15 00:29N 34°37' E 135°26'0 0.0
2017-Nov-14 23:53N 34°37' E 135°26'0 0.0
2017-Nov-14 23:29N 34°37' E 135°26'0 0.0
2017-Nov-14 22:35N 34°37' E 135°26'0 0.0
2017-Nov-14 22:29N 34°37' E 135°26'0 0.0
2017-Nov-14 21:59N 34°37' E 135°26'0 0.0
2017-Nov-14 21:29N 34°37' E 135°26'0 0.0
2017-Nov-14 20:59N 34°37' E 135°26'0 0.0
2017-Nov-14 20:31N 34°37' E 135°26'611.6
2017-Nov-14 20:00N 34°36' E 135°19'1121.9
2017-Nov-14 19:30N 34°35' E 135°06'919.0
2017-Nov-14 19:00N 34°35' E 134°54'  

Dump ship's entire track history